Time;durP1;ratioP1;P1;durP2;ratioP2;P2;SDS_P1;SDS_P2;PMS_P1;PMS_P2;Temp;Humidity;BMP_temperature;BMP_pressure;BME280_temperature;BME280_humidity;BME280_pressure;Samples;Min_cycle;Max_cycle;Signal;HPM_P1;HPM_P2
2022/04/17 00:01:38;;;;;;;20.88;11.10;;;4.90;99.90;;;;;;5048933;28;20378;-49
2022/04/17 00:04:04;;;;;;;21.08;10.18;;;4.90;99.90;;;;;;5048034;28;20021;-50
2022/04/17 00:06:30;;;;;;;20.58;11.75;;;4.90;99.90;;;;;;5048619;28;20078;-50
2022/04/17 00:08:57;;;;;;;25.13;13.10;;;4.80;99.90;;;;;;5048787;28;20064;-49
2022/04/17 00:11:22;;;;;;;19.55;11.50;;;4.80;99.90;;;;;;5048647;28;20053;-50
2022/04/17 00:13:48;;;;;;;22.30;10.95;;;4.70;99.90;;;;;;5065029;28;20058;-48
2022/04/17 00:16:13;;;;;;;18.88;10.77;;;4.70;99.90;;;;;;5082741;28;20031;-49
2022/04/17 00:18:39;;;;;;;21.27;11.23;;;4.80;99.90;;;;;;5088772;28;20024;-49
2022/04/17 00:21:08;;;;;;;27.50;17.08;;;4.80;99.90;;;;;;5088612;28;20024;-51
2022/04/17 00:23:34;;;;;;;26.73;16.55;;;4.90;99.90;;;;;;5087922;28;20032;-52
2022/04/17 00:26:00;;;;;;;21.80;14.45;;;4.90;99.90;;;;;;5087273;28;20024;-49
2022/04/17 00:28:26;;;;;;;24.00;14.00;;;4.80;99.90;;;;;;5082386;28;20519;-49
2022/04/17 00:30:51;;;;;;;24.85;12.18;;;4.70;99.90;;;;;;5078917;28;20024;-50
2022/04/17 00:33:17;;;;;;;22.67;13.23;;;4.80;99.90;;;;;;5086546;28;20162;-49
2022/04/17 00:35:44;;;;;;;22.42;12.32;;;4.80;99.90;;;;;;5088773;28;20142;-49
2022/04/17 00:38:10;;;;;;;17.67;10.40;;;4.70;99.90;;;;;;5088418;28;20031;-49
2022/04/17 00:40:36;;;;;;;21.83;11.65;;;4.60;99.90;;;;;;5088262;28;20024;-49
2022/04/17 00:43:01;;;;;;;25.65;12.07;;;4.60;99.90;;;;;;5087788;28;20596;-49
2022/04/17 00:45:27;;;;;;;21.40;11.60;;;4.60;99.90;;;;;;5086736;28;20020;-49
2022/04/17 00:47:52;;;;;;;23.48;12.38;;;4.50;99.90;;;;;;5088236;28;20028;-48
2022/04/17 00:50:19;;;;;;;22.88;11.93;;;4.40;99.90;;;;;;5088311;28;20495;-48
2022/04/17 00:52:45;;;;;;;26.85;13.35;;;4.40;99.90;;;;;;5088277;28;20024;-49
2022/04/17 00:55:12;;;;;;;27.75;13.75;;;4.50;99.90;;;;;;5087394;28;20024;-48
2022/04/17 00:57:37;;;;;;;20.83;12.32;;;4.50;99.90;;;;;;5088790;28;20032;-49
2022/04/17 01:00:05;;;;;;;24.20;12.25;;;4.50;99.90;;;;;;5080231;28;20032;-48
2022/04/17 01:02:31;;;;;;;18.90;12.40;;;4.40;99.90;;;;;;5088721;28;20376;-49
2022/04/17 01:04:57;;;;;;;24.40;12.70;;;4.30;99.90;;;;;;5092108;28;20020;-48
2022/04/17 01:07:23;;;;;;;18.58;11.30;;;4.30;99.90;;;;;;5092439;28;20093;-51
2022/04/17 01:09:50;;;;;;;20.80;10.93;;;4.30;99.90;;;;;;5092284;28;20055;-51
2022/04/17 01:12:17;;;;;;;23.58;11.35;;;4.20;99.90;;;;;;5091993;28;20024;-49
2022/04/17 01:14:43;;;;;;;19.20;10.93;;;4.30;99.90;;;;;;5091114;28;20278;-48
2022/04/17 01:17:10;;;;;;;22.45;12.02;;;4.20;99.90;;;;;;5092119;28;20024;-50
2022/04/17 01:19:37;;;;;;;19.23;11.32;;;4.20;99.90;;;;;;5091747;28;20566;-51
2022/04/17 01:22:11;;;;;;;19.92;10.65;;;4.20;99.90;;;;;;5091806;28;20032;-49
2022/04/17 01:27:22;;;;;;;21.13;10.23;;;4.10;99.90;;;;;;5092041;28;20034;-49
2022/04/17 01:29:50;;;;;;;16.42;9.77;;;4.00;99.90;;;;;;5082981;28;20077;-48
2022/04/17 01:32:16;;;;;;;20.23;10.80;;;3.90;99.90;;;;;;5086316;28;20077;-48
2022/04/17 01:34:43;;;;;;;18.83;9.35;;;3.90;99.90;;;;;;5090810;28;20032;-48
2022/04/17 01:37:09;;;;;;;19.05;9.57;;;3.80;99.90;;;;;;5090225;28;20507;-49
2022/04/17 01:39:34;;;;;;;15.98;9.60;;;3.90;99.90;;;;;;5091529;28;20139;-48
2022/04/17 01:42:00;;;;;;;15.63;8.10;;;3.90;99.90;;;;;;5091426;28;20077;-49
2022/04/17 01:44:28;;;;;;;14.10;7.93;;;3.80;99.90;;;;;;5090375;28;20073;-49
2022/04/17 01:46:54;;;;;;;19.65;9.00;;;3.80;99.90;;;;;;5091267;28;20439;-48
2022/04/17 01:49:19;;;;;;;14.50;7.30;;;3.80;99.90;;;;;;5091235;28;20103;-48
2022/04/17 01:51:47;;;;;;;17.67;9.02;;;3.80;99.90;;;;;;5090983;28;20032;-49
2022/04/17 01:54:15;;;;;;;16.10;8.90;;;3.80;99.90;;;;;;5090568;28;20035;-48
2022/04/17 01:56:42;;;;;;;16.52;9.38;;;3.70;99.90;;;;;;5091193;28;20027;-49
2022/04/17 01:59:09;;;;;;;18.50;9.68;;;3.70;99.90;;;;;;5085848;28;20296;-52
2022/04/17 02:01:37;;;;;;;14.50;7.72;;;3.70;99.90;;;;;;5082339;28;20012;-50
2022/04/17 02:04:04;;;;;;;18.20;9.30;;;3.60;99.90;;;;;;5090338;28;20330;-48
2022/04/17 02:06:30;;;;;;;20.55;10.50;;;3.50;99.90;;;;;;5090794;28;20024;-49
2022/04/17 02:08:55;;;;;;;15.68;9.70;;;3.60;99.90;;;;;;5090848;28;20030;-51
2022/04/17 02:11:22;;;;;;;17.42;9.82;;;3.40;99.90;;;;;;5090601;28;20077;-51
2022/04/17 02:13:51;;;;;;;15.60;9.18;;;3.40;99.90;;;;;;5088550;28;20089;-49
2022/04/17 02:16:19;;;;;;;18.67;9.65;;;3.30;99.90;;;;;;5090887;28;20108;-49
2022/04/17 02:18:49;;;;;;;17.23;8.82;;;3.30;99.90;;;;;;5072863;28;20288;-49
2022/04/17 02:21:17;;;;;;;19.05;9.05;;;3.20;99.90;;;;;;5090958;28;20139;-49
2022/04/17 02:23:44;;;;;;;15.73;8.40;;;3.10;99.90;;;;;;5090094;28;20469;-48
2022/04/17 02:26:11;;;;;;;15.88;9.30;;;3.10;99.90;;;;;;5089348;28;20031;-50
2022/04/17 02:28:37;;;;;;;14.85;9.35;;;3.00;99.90;;;;;;5086002;28;20025;-50
2022/04/17 02:31:04;;;;;;;15.88;8.95;;;2.90;99.90;;;;;;5082063;28;20638;-48
2022/04/17 02:33:30;;;;;;;13.57;8.15;;;2.90;99.90;;;;;;5089449;28;20055;-49
2022/04/17 02:35:55;;;;;;;18.00;8.77;;;2.80;99.90;;;;;;5090508;28;20106;-49
2022/04/17 02:38:21;;;;;;;13.00;7.82;;;2.80;99.90;;;;;;5090307;28;20028;-49
2022/04/17 02:40:47;;;;;;;18.10;8.75;;;2.80;99.90;;;;;;5090301;28;20024;-48
2022/04/17 02:43:13;;;;;;;17.55;8.20;;;2.70;99.90;;;;;;5090022;28;20101;-49
2022/04/17 02:45:38;;;;;;;16.55;7.93;;;2.70;99.90;;;;;;5090044;28;20486;-49
2022/04/17 02:48:04;;;;;;;16.80;8.07;;;2.60;99.90;;;;;;5090052;28;20052;-48
2022/04/17 02:50:30;;;;;;;16.60;7.93;;;2.60;99.90;;;;;;5090258;28;20031;-48
2022/04/17 02:52:55;;;;;;;14.10;8.82;;;2.60;99.90;;;;;;5088017;28;20024;-49
2022/04/17 02:55:21;;;;;;;14.40;8.23;;;2.70;99.90;;;;;;5089919;28;20081;-49
2022/04/17 02:57:46;;;;;;;20.33;9.15;;;2.70;99.90;;;;;;5089874;28;20480;-48
2022/04/17 03:00:12;;;;;;;18.08;8.43;;;2.70;99.90;;;;;;5080165;28;20052;-48
2022/04/17 03:05:36;;;;;;;13.43;7.55;;;2.70;99.90;;;;;;5090058;28;20026;-49
2022/04/17 03:08:05;;;;;;;11.20;7.07;;;2.60;99.90;;;;;;5089735;28;20020;-48
2022/04/17 03:10:35;;;;;;;14.38;7.93;;;2.50;99.90;;;;;;5089877;28;20554;-48
2022/04/17 03:13:01;;;;;;;16.60;8.10;;;2.50;99.90;;;;;;5089289;28;20085;-48
2022/04/17 03:15:26;;;;;;;12.70;7.78;;;2.50;99.90;;;;;;5089270;28;20040;-49
2022/04/17 03:17:52;;;;;;;10.90;7.47;;;2.50;99.90;;;;;;5089431;28;20024;-49
2022/04/17 03:20:19;;;;;;;15.82;8.90;;;2.50;99.90;;;;;;5089396;28;20047;-49
2022/04/17 03:22:44;;;;;;;14.30;8.43;;;2.40;99.90;;;;;;5071939;28;20029;-50
2022/04/17 03:25:11;;;;;;;14.38;9.40;;;2.40;99.90;;;;;;5058370;28;20170;-50
2022/04/17 03:27:36;;;;;;;16.50;9.80;;;2.30;99.90;;;;;;5057791;28;20032;-48
2022/04/17 03:30:03;;;;;;;11.73;7.30;;;2.30;99.90;;;;;;5063872;28;20037;-49
2022/04/17 03:32:29;;;;;;;14.73;7.38;;;2.30;99.90;;;;;;5061458;28;20476;-52
2022/04/17 03:34:54;;;;;;;15.25;7.70;;;2.30;99.90;;;;;;5048306;28;20052;-48
2022/04/17 03:37:20;;;;;;;14.00;6.68;;;2.30;99.90;;;;;;5049099;28;20029;-48
2022/04/17 03:39:46;;;;;;;13.02;6.63;;;2.30;99.90;;;;;;5048882;28;20051;-48
2022/04/17 03:42:12;;;;;;;12.85;7.15;;;2.30;99.90;;;;;;5049350;28;20024;-51
2022/04/17 03:44:38;;;;;;;11.50;7.28;;;2.20;99.90;;;;;;5048411;28;20024;-48
2022/04/17 03:47:06;;;;;;;16.48;7.68;;;2.20;99.90;;;;;;5049445;28;20360;-49
2022/04/17 03:49:31;;;;;;;15.48;7.30;;;2.20;99.90;;;;;;5047577;28;20021;-48
2022/04/17 03:51:57;;;;;;;13.07;7.45;;;2.20;99.90;;;;;;5049209;28;20399;-48
2022/04/17 03:54:22;;;;;;;13.77;7.78;;;2.10;99.90;;;;;;5046959;28;20175;-48
2022/04/17 03:56:48;;;;;;;14.00;7.15;;;2.20;99.90;;;;;;5048719;28;20025;-49
2022/04/17 03:59:14;;;;;;;12.20;7.18;;;2.20;99.90;;;;;;5060222;28;20111;-51
2022/04/17 04:01:40;;;;;;;13.95;7.40;;;2.20;99.90;;;;;;5080207;28;20028;-48
2022/04/17 04:04:09;;;;;;;12.90;7.32;;;2.20;99.90;;;;;;5088402;28;20020;-48
2022/04/17 04:06:34;;;;;;;15.88;8.07;;;2.10;99.90;;;;;;5089037;28;20516;-49
2022/04/17 04:09:00;;;;;;;14.88;7.57;;;2.10;99.90;;;;;;5087496;28;20120;-48
2022/04/17 04:11:26;;;;;;;16.10;7.82;;;2.10;99.90;;;;;;5088864;28;20024;-47
2022/04/17 04:13:52;;;;;;;13.02;8.27;;;2.00;99.90;;;;;;5087738;28;20508;-48
2022/04/17 04:16:18;;;;;;;15.05;7.82;;;2.00;99.90;;;;;;5088634;28;20028;-48
2022/04/17 04:18:43;;;;;;;12.32;7.95;;;2.00;99.90;;;;;;5087369;28;20553;-48
2022/04/17 04:21:09;;;;;;;17.80;8.25;;;2.00;99.90;;;;;;5088659;28;20024;-48
2022/04/17 04:23:35;;;;;;;15.50;8.30;;;1.90;99.90;;;;;;5087967;28;20021;-49
2022/04/17 04:26:02;;;;;;;13.73;7.30;;;1.90;99.90;;;;;;5088527;28;20020;-49
2022/04/17 04:28:34;;;;;;;15.98;8.10;;;1.80;99.90;;;;;;5086655;28;20024;-50
2022/04/17 04:31:00;;;;;;;15.98;7.80;;;1.90;99.90;;;;;;5067302;28;20457;-49
2022/04/17 04:33:26;;;;;;;13.75;8.68;;;1.90;99.90;;;;;;5069480;28;20024;-49
2022/04/17 04:35:51;;;;;;;18.13;8.85;;;1.90;99.90;;;;;;5071179;28;20267;-49
2022/04/17 04:38:17;;;;;;;16.15;8.55;;;1.80;99.90;;;;;;5072807;28;20025;-50
2022/04/17 04:40:42;;;;;;;16.08;8.82;;;1.90;99.90;;;;;;5070805;28;20044;-51
2022/04/17 04:43:08;;;;;;;14.48;7.47;;;1.90;99.90;;;;;;5071716;28;20128;-50
2022/04/17 04:49:29;;;;;;;19.05;8.85;;;1.90;99.90;;;;;;5072276;28;20043;-49
2022/04/17 04:51:05;;;;;;;16.33;8.65;;;1.80;99.90;;;;;;5071918;28;20104;-49
2022/04/17 04:53:32;;;;;;;19.38;8.63;;;1.80;99.90;;;;;;5071576;28;20136;-49
2022/04/17 04:55:57;;;;;;;14.80;7.63;;;1.80;99.90;;;;;;5072301;28;20035;-49
2022/04/17 04:58:23;;;;;;;20.05;8.60;;;1.80;99.90;;;;;;5072117;28;20024;-49
2022/04/17 05:00:48;;;;;;;15.60;8.07;;;1.80;99.90;;;;;;5081428;28;20078;-49
2022/04/17 05:03:14;;;;;;;21.20;9.02;;;1.80;99.90;;;;;;5091689;28;20528;-49
2022/04/17 05:05:39;;;;;;;16.05;10.55;;;1.90;99.90;;;;;;5092145;28;20027;-49
2022/04/17 05:08:05;;;;;;;20.77;10.20;;;1.90;99.90;;;;;;5092278;28;20020;-49
2022/04/17 05:10:30;;;;;;;21.20;11.32;;;1.90;99.90;;;;;;5092339;28;20066;-49
2022/04/17 05:12:56;;;;;;;19.95;10.20;;;2.00;99.90;;;;;;5091464;28;20081;-50
2022/04/17 05:15:22;;;;;;;19.30;9.98;;;2.00;99.90;;;;;;5091921;28;20032;-50
2022/04/17 05:17:48;;;;;;;16.50;9.27;;;2.00;99.90;;;;;;5091953;28;20381;-50
2022/04/17 05:20:14;;;;;;;19.42;9.75;;;2.00;99.90;;;;;;5077587;28;20035;-49
2022/04/17 05:22:40;;;;;;;20.13;10.07;;;2.10;99.90;;;;;;5059699;28;20194;-49
2022/04/17 05:25:06;;;;;;;21.90;9.63;;;2.10;99.90;;;;;;5058321;28;20047;-52
2022/04/17 05:27:31;;;;;;;17.58;8.98;;;2.20;99.90;;;;;;5051690;28;20539;-49
2022/04/17 05:29:57;;;;;;;25.95;11.40;;;2.20;99.90;;;;;;5070799;28;20019;-50
2022/04/17 05:32:22;;;;;;;18.80;10.15;;;2.30;99.90;;;;;;5086837;28;20103;-49
2022/04/17 05:34:48;;;;;;;19.88;11.15;;;2.30;99.90;;;;;;5073268;28;20037;-48
2022/04/17 05:37:13;;;;;;;24.85;10.63;;;2.30;99.90;;;;;;5057185;28;20029;-51
2022/04/17 05:39:39;;;;;;;22.95;11.73;;;2.40;99.90;;;;;;5056510;28;20033;-50
2022/04/17 05:42:04;;;;;;;19.80;10.82;;;2.50;99.90;;;;;;5051670;28;20021;-49
2022/04/17 05:44:30;;;;;;;18.10;9.88;;;2.50;99.90;;;;;;5058931;28;20078;-50
2022/04/17 05:46:56;;;;;;;22.75;11.23;;;2.60;99.90;;;;;;5058443;28;20488;-49
2022/04/17 05:49:22;;;;;;;16.60;9.50;;;2.70;99.90;;;;;;5061001;28;20037;-47
2022/04/17 05:51:47;;;;;;;20.00;10.23;;;2.70;99.90;;;;;;5053749;28;20047;-50
2022/04/17 05:54:13;;;;;;;17.10;9.45;;;2.70;99.90;;;;;;5053947;28;20040;-51
2022/04/17 05:56:39;;;;;;;19.83;10.02;;;2.80;99.90;;;;;;5069112;28;20043;-50
2022/04/17 05:59:24;;;;;;;18.40;8.73;;;2.90;99.90;;;;;;5069000;28;20028;-50
2022/04/17 06:01:50;;;;;;;15.48;8.88;;;3.00;99.90;;;;;;5069980;28;20050;-48
2022/04/17 06:04:15;;;;;;;16.85;8.60;;;3.00;99.90;;;;;;5074135;28;20025;-49
2022/04/17 06:06:41;;;;;;;17.23;7.78;;;3.10;99.90;;;;;;5063968;28;20163;-41
2022/04/17 06:09:07;;;;;;;15.60;8.00;;;3.20;99.90;;;;;;5063590;28;20454;-40
2022/04/17 06:11:32;;;;;;;14.18;7.28;;;3.30;99.90;;;;;;5069439;28;20089;-40
2022/04/17 06:13:58;;;;;;;17.20;8.20;;;3.30;99.90;;;;;;5061749;28;20190;-40
2022/04/17 06:16:23;;;;;;;17.23;8.13;;;3.40;99.90;;;;;;5066785;28;20067;-41
2022/04/17 06:18:49;;;;;;;15.07;8.70;;;3.50;99.90;;;;;;5064264;28;20073;-41
2022/04/17 06:21:18;;;;;;;16.38;8.75;;;3.60;99.90;;;;;;5060523;28;20043;-42
2022/04/17 06:23:43;;;;;;;18.67;9.30;;;3.70;99.90;;;;;;5065296;28;20028;-40
2022/04/17 06:26:09;;;;;;;14.07;8.25;;;3.80;99.90;;;;;;5056566;28;20406;-41
2022/04/17 06:28:35;;;;;;;15.38;8.63;;;3.90;99.90;;;;;;5064467;28;20099;-41
2022/04/17 06:31:00;;;;;;;17.77;10.18;;;3.90;99.90;;;;;;5071876;28;20110;-41
2022/04/17 06:33:26;;;;;;;18.10;8.77;;;4.00;99.90;;;;;;5065763;28;20035;-41
2022/04/17 06:35:51;;;;;;;15.93;8.90;;;4.10;99.90;;;;;;5062900;28;20035;-41
2022/04/17 06:38:17;;;;;;;16.90;9.75;;;4.20;99.90;;;;;;5059598;28;20028;-40
2022/04/17 06:40:43;;;;;;;21.45;9.88;;;4.30;99.90;;;;;;5057673;28;20080;-41
2022/04/17 06:43:09;;;;;;;19.45;9.35;;;4.40;99.90;;;;;;5058805;28;20048;-40
2022/04/17 06:45:37;;;;;;;15.80;9.60;;;4.50;99.90;;;;;;5058842;28;20013;-41
2022/04/17 06:48:15;;;;;;;16.95;9.68;;;4.60;99.90;;;;;;5056331;28;20040;-41
2022/04/17 06:50:41;;;;;;;20.60;9.88;;;4.80;99.90;;;;;;5059029;28;20062;-40
2022/04/17 06:53:07;;;;;;;15.25;8.57;;;4.90;99.90;;;;;;5054453;28;20037;-41
2022/04/17 06:55:32;;;;;;;17.38;8.95;;;5.00;99.90;;;;;;5062839;28;20032;-41
2022/04/17 06:57:58;;;;;;;20.73;10.00;;;5.10;99.90;;;;;;5058529;28;20024;-40
2022/04/17 07:00:24;;;;;;;21.75;9.65;;;5.10;99.90;;;;;;5065840;28;20500;-41
2022/04/17 07:02:49;;;;;;;16.83;8.98;;;5.20;99.90;;;;;;5062297;28;20469;-40
2022/04/17 07:05:15;;;;;;;14.20;7.88;;;5.20;99.90;;;;;;5063129;28;20092;-43
2022/04/17 07:07:41;;;;;;;14.88;8.18;;;5.40;99.90;;;;;;5069326;28;20013;-41
2022/04/17 07:10:08;;;;;;;15.02;7.15;;;5.50;99.90;;;;;;5069711;28;20020;-41
2022/04/17 07:12:34;;;;;;;13.65;7.05;;;5.60;99.90;;;;;;5069404;28;20073;-42
2022/04/17 07:15:00;;;;;;;11.02;6.20;;;5.80;99.90;;;;;;5068769;28;20029;-41
2022/04/17 07:17:36;;;;;;;12.57;6.10;;;6.00;99.90;;;;;;5069413;28;20051;-40
2022/04/17 07:20:05;;;;;;;9.57;5.78;;;6.10;99.90;;;;;;5066135;28;20033;-40
2022/04/17 07:22:32;;;;;;;11.45;5.55;;;6.20;99.90;;;;;;5066425;28;20054;-41
2022/04/17 07:25:00;;;;;;;9.70;4.80;;;6.30;99.90;;;;;;5068555;28;20017;-41
2022/04/17 07:27:25;;;;;;;5.07;3.78;;;6.40;99.90;;;;;;5069091;28;20462;-42
2022/04/17 07:29:52;;;;;;;5.90;3.33;;;6.50;98.00;;;;;;5063438;28;20114;-41
2022/04/17 07:32:18;;;;;;;7.47;3.65;;;6.70;96.80;;;;;;5080685;28;20122;-42
2022/04/17 07:34:43;;;;;;;5.30;2.97;;;6.90;95.20;;;;;;5088630;28;20102;-43
2022/04/17 07:37:09;;;;;;;5.55;3.47;;;7.10;94.90;;;;;;5089043;28;20032;-41
2022/04/17 07:39:35;;;;;;;6.65;4.10;;;7.40;93.10;;;;;;5088961;28;20028;-45
2022/04/17 07:42:01;;;;;;;5.97;3.65;;;7.70;92.30;;;;;;5088918;28;20028;-44
2022/04/17 07:44:29;;;;;;;6.65;3.58;;;8.00;93.20;;;;;;5088366;28;20073;-42
2022/04/17 07:46:55;;;;;;;5.85;3.17;;;8.30;91.40;;;;;;5088971;28;20020;-42
2022/04/17 07:49:21;;;;;;;6.20;3.10;;;8.70;90.30;;;;;;5088890;28;20121;-42
2022/04/17 07:51:46;;;;;;;4.63;3.15;;;9.00;88.80;;;;;;5089062;28;20028;-44
2022/04/17 07:54:12;;;;;;;4.38;2.85;;;9.50;88.60;;;;;;5088204;28;20107;-42
2022/04/17 07:56:37;;;;;;;5.47;2.85;;;10.20;89.90;;;;;;5059776;28;20051;-42
2022/04/17 07:59:04;;;;;;;4.38;2.53;;;11.40;80.10;;;;;;5066433;28;20032;-42
2022/04/17 08:01:33;;;;;;;6.03;2.75;;;12.80;72.70;;;;;;5074627;28;20051;-42
2022/04/17 08:03:58;;;;;;;4.10;2.83;;;14.30;70.50;;;;;;5060843;28;20020;-43
2022/04/17 08:06:24;;;;;;;3.65;2.20;;;15.70;64.30;;;;;;5067802;28;20588;-43
2022/04/17 08:08:51;;;;;;;5.07;2.60;;;17.00;58.70;;;;;;5065949;28;20101;-46
2022/04/17 08:11:17;;;;;;;2.88;2.47;;;18.30;55.20;;;;;;5067681;28;20048;-43
2022/04/17 08:13:45;;;;;;;3.10;2.20;;;19.00;54.00;;;;;;5067601;28;20067;-42
2022/04/17 08:16:10;;;;;;;3.33;2.00;;;20.40;44.30;;;;;;5066967;28;20111;-42
2022/04/17 08:18:36;;;;;;;3.25;2.13;;;21.30;42.10;;;;;;5067611;28;20443;-43
2022/04/17 08:21:04;;;;;;;4.15;2.30;;;21.70;41.30;;;;;;5062549;28;20032;-45
2022/04/17 08:23:30;;;;;;;4.45;2.10;;;20.70;41.30;;;;;;5061611;28;20021;-45
2022/04/17 08:25:57;;;;;;;3.40;2.15;;;22.10;41.10;;;;;;5047767;28;20022;-46
2022/04/17 08:28:23;;;;;;;3.55;1.67;;;23.20;38.00;;;;;;5048129;28;20021;-42
2022/04/17 08:30:49;;;;;;;2.70;1.83;;;24.40;37.20;;;;;;5066190;28;20318;-44
2022/04/17 08:33:15;;;;;;;4.55;1.90;;;24.50;35.20;;;;;;5081951;28;20194;-44
2022/04/17 08:35:40;;;;;;;1.92;1.30;;;24.90;35.10;;;;;;5088523;28;20024;-43
2022/04/17 08:38:06;;;;;;;1.58;1.40;;;25.60;33.90;;;;;;5088309;28;20027;-43
2022/04/17 08:40:34;;;;;;;2.75;1.50;;;24.90;33.40;;;;;;5088694;28;20032;-42
2022/04/17 08:43:00;;;;;;;2.50;1.70;;;25.00;33.10;;;;;;5086412;28;20105;-43
2022/04/17 08:45:26;;;;;;;1.50;1.40;;;25.60;34.30;;;;;;5088249;28;20481;-45
2022/04/17 08:47:53;;;;;;;1.58;1.10;;;26.10;33.50;;;;;;5088775;28;20024;-45
2022/04/17 08:50:20;;;;;;;2.85;1.70;;;25.30;33.20;;;;;;5088643;28;20028;-43
2022/04/17 08:52:47;;;;;;;1.48;1.20;;;26.10;32.10;;;;;;5084242;28;20028;-45
2022/04/17 08:55:13;;;;;;;1.00;0.90;;;26.80;32.30;;;;;;5069852;28;20098;-46
2022/04/17 08:57:39;;;;;;;2.28;1.40;;;27.60;31.80;;;;;;5085725;28;20508;-47
2022/04/17 09:00:08;;;;;;;2.05;1.58;;;27.90;30.80;;;;;;5087768;28;20036;-42
2022/04/17 09:02:37;;;;;;;1.38;1.10;;;27.80;32.20;;;;;;5088174;28;20028;-43
2022/04/17 09:05:08;;;;;;;1.50;1.10;;;28.30;31.40;;;;;;5087679;28;20081;-41
2022/04/17 09:07:49;;;;;;;2.25;1.67;;;28.90;29.70;;;;;;5088540;28;20492;-44
2022/04/17 09:10:28;;;;;;;1.33;1.13;;;29.10;30.00;;;;;;5088035;28;20081;-41
2022/04/17 09:12:59;;;;;;;2.47;1.63;;;29.00;29.90;;;;;;5087953;28;20023;-43
2022/04/17 09:15:28;;;;;;;3.67;1.70;;;29.30;30.00;;;;;;5088006;28;20412;-44
2022/04/17 09:17:54;;;;;;;2.40;1.90;;;29.00;30.00;;;;;;5088126;28;20162;-43
2022/04/17 09:20:22;;;;;;;2.42;1.58;;;28.60;29.90;;;;;;5089715;28;20103;-41
2022/04/17 09:22:52;;;;;;;2.35;1.80;;;28.70;29.90;;;;;;5088817;28;20442;-44
2022/04/17 09:25:18;;;;;;;3.03;1.77;;;29.20;29.60;;;;;;5074413;28;20071;-42
2022/04/17 09:28:04;;;;;;;1.48;1.38;;;29.80;29.50;;;;;;5089984;28;20397;-40
2022/04/17 09:30:39;;;;;;;1.70;1.55;;;30.10;29.30;;;;;;5077047;28;20077;-41
2022/04/17 09:33:06;;;;;;;3.60;1.50;;;29.80;30.10;;;;;;5077091;28;20019;-42
2022/04/17 09:35:32;;;;;;;4.10;1.55;;;30.00;29.80;;;;;;5091867;28;20085;-44
2022/04/17 09:37:59;;;;;;;2.10;1.80;;;30.90;28.20;;;;;;5091482;28;20039;-42
2022/04/17 09:40:26;;;;;;;2.80;1.80;;;31.10;28.20;;;;;;5091736;28;20020;-44
2022/04/17 09:43:16;;;;;;;2.38;1.70;;;29.30;28.20;;;;;;5090719;28;20284;-43
2022/04/17 09:46:00;;;;;;;1.60;1.45;;;28.90;29.40;;;;;;5091308;28;20494;-41
2022/04/17 09:48:44;;;;;;;2.45;1.75;;;29.10;30.20;;;;;;5091334;28;20119;-44
2022/04/17 09:51:23;;;;;;;9.93;3.72;;;28.50;29.20;;;;;;5091170;28;20085;-43
2022/04/17 09:54:05;;;;;;;2.03;1.80;;;27.80;29.80;;;;;;5090689;28;20035;-43
2022/04/17 09:56:41;;;;;;;3.88;2.40;;;27.20;29.40;;;;;;5089817;28;20059;-42
2022/04/17 09:59:17;;;;;;;2.03;1.73;;;27.20;30.10;;;;;;5085029;28;20175;-42
2022/04/17 10:01:45;;;;;;;2.55;2.00;;;27.60;33.20;;;;;;5079121;28;20037;-41
2022/04/17 10:04:12;;;;;;;1.95;1.70;;;28.50;31.00;;;;;;5089114;28;20473;-41
2022/04/17 10:06:38;;;;;;;2.47;1.77;;;28.00;31.30;;;;;;5090955;28;20105;-43
2022/04/17 10:09:05;;;;;;;2.53;1.55;;;28.50;32.30;;;;;;5089502;28;20020;-42
2022/04/17 10:11:32;;;;;;;2.70;1.75;;;29.60;29.80;;;;;;5090747;28;20416;-42
2022/04/17 10:13:59;;;;;;;3.10;1.85;;;29.60;29.40;;;;;;5090070;28;20036;-44
2022/04/17 10:16:28;;;;;;;2.20;1.83;;;30.20;28.90;;;;;;5090697;28;20402;-42
2022/04/17 10:18:55;;;;;;;3.15;2.17;;;30.20;29.90;;;;;;5090956;28;20024;-43
2022/04/17 10:21:23;;;;;;;1.77;1.63;;;30.40;30.50;;;;;;5090966;28;20119;-43
2022/04/17 10:23:54;;;;;;;2.92;2.00;;;30.00;30.30;;;;;;5090401;28;20020;-43
2022/04/17 10:26:21;;;;;;;2.90;1.95;;;29.50;30.00;;;;;;5090552;28;20020;-43
2022/04/17 10:28:52;;;;;;;2.50;1.63;;;28.20;30.80;;;;;;5090049;28;20040;-42
2022/04/17 10:31:19;;;;;;;2.05;1.80;;;29.10;29.40;;;;;;5072705;28;20364;-43
2022/04/17 10:34:23;;;;;;;2.28;1.90;;;28.10;31.10;;;;;;5088554;28;20444;-42
2022/04/17 10:37:29;;;;;;;4.00;1.95;;;28.40;33.90;;;;;;5090200;28;20163;-44
2022/04/17 10:39:57;;;;;;;5.00;2.42;;;28.30;31.90;;;;;;5090248;28;20027;-43
2022/04/17 10:42:35;;;;;;;2.70;1.98;;;26.30;30.80;;;;;;5090222;28;20336;-43
2022/04/17 10:45:02;;;;;;;3.95;2.83;;;25.70;33.00;;;;;;5089347;28;20498;-43
2022/04/17 10:47:29;;;;;;;3.28;2.38;;;25.00;33.40;;;;;;5090079;28;20016;-42
2022/04/17 10:50:00;;;;;;;5.38;2.55;;;23.80;34.20;;;;;;5088958;28;20024;-41
2022/04/17 10:52:31;;;;;;;2.65;2.15;;;22.50;36.20;;;;;;5089990;28;20104;-45
2022/04/17 10:55:08;;;;;;;5.45;2.50;;;22.10;36.00;;;;;;5088984;28;20062;-40
2022/04/17 10:57:44;;;;;;;3.20;2.30;;;22.00;37.00;;;;;;5089807;28;20024;-44
2022/04/17 11:00:27;;;;;;;5.65;2.20;;;22.40;37.30;;;;;;5077715;28;20559;-43
2022/04/17 11:02:53;;;;;;;3.88;2.30;;;23.50;35.80;;;;;;5080857;28;20485;-43
2022/04/17 11:08:26;;;;;;;4.28;3.30;;;24.80;34.80;;;;;;5090088;28;20124;-43
2022/04/17 11:10:54;;;;;;;3.65;2.50;;;24.60;35.00;;;;;;5089533;28;20024;-42
2022/04/17 11:13:21;;;;;;;2.67;2.10;;;25.40;34.30;;;;;;5089280;28;20364;-46
2022/04/17 11:15:55;;;;;;;7.78;3.40;;;25.30;34.00;;;;;;5089445;28;20028;-42
2022/04/17 11:18:24;;;;;;;3.13;2.22;;;25.50;33.20;;;;;;5088162;28;20102;-42
2022/04/17 11:20:54;;;;;;;4.05;2.05;;;25.50;34.10;;;;;;5089442;28;20032;-43
2022/04/17 11:23:46;;;;;;;;;;;24.90;34.90;;;;;;5089378;28;20028;-41
2022/04/17 11:26:11;;;;;;;3.65;2.20;;;25.80;33.60;;;;;;5065281;28;20096;-45
2022/04/17 11:28:37;;;;;;;3.70;2.47;;;25.90;36.10;;;;;;5089312;28;20228;-43
2022/04/17 11:31:02;;;;;;;5.03;3.13;;;26.00;35.00;;;;;;5071298;28;20028;-43
2022/04/17 11:33:28;;;;;;;2.53;1.90;;;26.30;34.40;;;;;;5083504;28;20043;-42
2022/04/17 11:35:54;;;;;;;2.30;2.10;;;27.60;32.50;;;;;;5087901;28;20143;-44
2022/04/17 11:38:19;;;;;;;9.48;2.42;;;27.80;32.20;;;;;;5089412;28;20028;-43
2022/04/17 11:40:48;;;;;;;2.95;1.80;;;28.20;31.90;;;;;;5089090;28;20367;-43
2022/04/17 11:43:15;;;;;;;3.25;2.05;;;28.30;32.80;;;;;;5087852;28;20066;-42
2022/04/17 11:45:42;;;;;;;2.75;2.38;;;28.10;33.30;;;;;;5088841;28;20031;-42
2022/04/17 11:48:10;;;;;;;2.65;2.08;;;28.60;31.10;;;;;;5089376;28;20016;-46
2022/04/17 11:50:36;;;;;;;3.05;1.95;;;28.40;30.80;;;;;;5089221;28;20078;-45
2022/04/17 11:53:09;;;;;;;2.78;2.10;;;28.40;31.10;;;;;;5088410;28;20042;-42
2022/04/17 11:55:37;;;;;;;2.40;1.80;;;28.30;30.60;;;;;;5087782;28;20028;-44
2022/04/17 11:58:07;;;;;;;2.60;2.17;;;26.80;32.80;;;;;;5087645;28;20020;-41
2022/04/17 12:00:33;;;;;;;;;;;27.60;30.90;;;;;;5078232;28;20269;-43
2022/04/17 12:03:05;;;;;;;2.95;2.10;;;27.70;30.50;;;;;;5080221;28;19947;-41
2022/04/17 12:05:32;;;;;;;2.55;2.00;;;27.50;30.60;;;;;;5088877;28;20485;-45
2022/04/17 12:08:13;;;;;;;2.85;2.42;;;26.90;31.60;;;;;;5088817;28;20073;-44
2022/04/17 12:10:43;;;;;;;5.20;2.20;;;25.80;32.20;;;;;;5088829;28;20492;-43
2022/04/17 12:13:20;;;;;;;3.10;2.50;;;25.60;35.50;;;;;;5087982;28;20035;-42
2022/04/17 12:15:48;;;;;;;3.13;2.60;;;25.30;36.20;;;;;;5088504;28;20028;-43
2022/04/17 12:18:17;;;;;;;4.30;2.30;;;24.90;37.60;;;;;;5088612;28;20447;-42
2022/04/17 12:20:43;;;;;;;3.97;2.65;;;24.80;35.10;;;;;;5088424;28;20024;-44
2022/04/17 12:23:08;;;;;;;3.35;2.40;;;24.00;37.10;;;;;;5088183;28;20028;-43
2022/04/17 12:25:35;;;;;;;3.47;2.53;;;23.90;38.50;;;;;;5088478;28;20052;-42
2022/04/17 12:28:01;;;;;;;5.07;2.17;;;23.40;37.40;;;;;;5088813;28;20038;-43
2022/04/17 12:30:27;;;;;;;3.83;2.92;;;23.20;38.00;;;;;;5077583;28;20024;-45
2022/04/17 12:32:59;;;;;;;3.78;2.35;;;23.00;36.20;;;;;;5079540;28;20095;-43
2022/04/17 12:35:29;;;;;;;2.67;2.22;;;23.10;36.50;;;;;;5088571;28;20023;-42
2022/04/17 12:38:03;;;;;;;3.13;2.33;;;22.50;37.00;;;;;;5088758;28;20385;-45
2022/04/17 12:40:29;;;;;;;3.10;1.77;;;22.10;38.80;;;;;;5088386;28;20020;-44
2022/04/17 12:43:21;;;;;;;2.65;1.80;;;22.00;36.40;;;;;;5087784;28;20026;-42
2022/04/17 12:45:55;;;;;;;3.00;2.38;;;21.60;40.40;;;;;;5088503;28;20040;-42
2022/04/17 12:48:26;;;;;;;2.75;1.85;;;21.40;38.60;;;;;;5088343;28;20024;-41
2022/04/17 12:50:56;;;;;;;3.03;2.38;;;21.10;37.70;;;;;;5088257;28;20024;-42
2022/04/17 12:53:22;;;;;;;3.60;2.20;;;20.30;37.80;;;;;;5087877;28;20451;-42
2022/04/17 12:55:53;;;;;;;2.28;1.90;;;20.60;39.30;;;;;;5092297;28;20093;-42
2022/04/17 12:58:19;;;;;;;4.25;1.80;;;20.90;37.10;;;;;;5092370;28;20103;-42
2022/04/17 13:00:55;;;;;;;2.42;1.83;;;20.80;35.50;;;;;;5080174;28;20032;-44